Terminal Aerodrome Forecast
Issued by NWS

Home | Current Version | Previous Version | Text Only | Print | Product List | Glossary On
Versions: 1 2 3 4 5 6 7 8 9 10 11 12 13
932
FTUS46 KSTO 241720
TAFRDD
TAF
KRDD 241720Z 2418/2518 36012G20KT P6SM SKC
     FM250000 35008KT P6SM SKC
     FM251400 35010G18KT P6SM SKC=

USA.gov is the U.S. government's official web portal to all federal, state and local government web resources and services.